Time;durP1;ratioP1;P1;durP2;ratioP2;P2;SDS_P1;SDS_P2;PMS_P1;PMS_P2;Temp;Humidity;BMP_temperature;BMP_pressure;BME280_temperature;BME280_humidity;BME280_pressure;Samples;Min_cycle;Max_cycle;Signal;HPM_P1;HPM_P2
2022/11/29 00:00:51;;;;;;;31.83;15.73;;;;;;;;;;4993480;28;20473;-66
2022/11/29 00:03:16;;;;;;;19.93;14.63;;;;;;;;;;4994287;28;20671;-67
2022/11/29 00:05:42;;;;;;;15.90;12.83;;;;;;;;;;4971997;28;20238;-66
2022/11/29 00:08:07;;;;;;;17.63;13.17;;;;;;;;;;4989444;28;20586;-67
2022/11/29 00:10:35;;;;;;;19.17;15.27;;;;;;;;;;4995557;28;20240;-67
2022/11/29 00:13:00;;;;;;;17.13;13.70;;;;;;;;;;4988554;28;20220;-66
2022/11/29 00:15:25;;;;;;;17.83;14.70;;;;;;;;;;4994418;28;20425;-67
2022/11/29 00:17:50;;;;;;;26.30;14.83;;;;;;;;;;4995392;28;20731;-67
2022/11/29 00:20:16;;;;;;;19.23;14.93;;;;;;;;;;4996891;28;20590;-66
2022/11/29 00:22:41;;;;;;;17.43;13.30;;;;;;;;;;4996501;28;20208;-67
2022/11/29 00:25:06;;;;;;;18.17;12.73;;;;;;;;;;4996647;28;20261;-67
2022/11/29 00:27:32;;;;;;;18.40;13.80;;;;;;;;;;4995358;28;20181;-67
2022/11/29 00:29:57;;;;;;;20.83;14.70;;;;;;;;;;4997153;28;20191;-66
2022/11/29 00:32:22;;;;;;;19.53;14.37;;;;;;;;;;4979092;28;20210;-67
2022/11/29 00:34:47;;;;;;;16.40;13.97;;;;;;;;;;4997563;28;20777;-67
2022/11/29 00:37:14;;;;;;;17.27;14.97;;;;;;;;;;4996917;28;20268;-67
2022/11/29 00:39:40;;;;;;;19.50;14.60;;;;;;;;;;4996329;28;20196;-67
2022/11/29 00:42:05;;;;;;;17.73;14.37;;;;;;;;;;4998092;28;20417;-67
2022/11/29 00:44:30;;;;;;;17.00;13.73;;;;;;;;;;4996542;28;20201;-66
2022/11/29 00:46:55;;;;;;;22.23;15.77;;;;;;;;;;4992881;28;20212;-67
2022/11/29 00:49:21;;;;;;;21.17;15.67;;;;;;;;;;4992431;28;20569;-67
2022/11/29 00:51:46;;;;;;;18.50;15.17;;;;;;;;;;4992284;28;20284;-67
2022/11/29 00:54:11;;;;;;;19.87;15.73;;;;;;;;;;4993983;28;20671;-67
2022/11/29 00:56:37;;;;;;;23.40;15.37;;;;;;;;;;4990318;28;20272;-67
2022/11/29 00:59:02;;;;;;;25.43;16.23;;;;;;;;;;4993501;28;20687;-67
2022/11/29 01:01:27;;;;;;;25.40;16.07;;;;;;;;;;4997274;28;20177;-67
2022/11/29 01:03:53;;;;;;;18.20;14.53;;;;;;;;;;4999002;28;20196;-67
2022/11/29 01:06:18;;;;;;;19.90;14.97;;;;;;;;;;5000339;28;20209;-66
2022/11/29 01:08:44;;;;;;;22.03;16.33;;;;;;;;;;4999949;28;20710;-67
2022/11/29 01:11:09;;;;;;;24.60;15.90;;;;;;;;;;4997245;28;20200;-67
2022/11/29 01:13:35;;;;;;;23.77;16.33;;;;;;;;;;4998072;28;20207;-67
2022/11/29 01:16:01;;;;;;;26.17;17.50;;;;;;;;;;4999360;28;20177;-67
2022/11/29 01:18:27;;;;;;;28.87;17.20;;;;;;;;;;4998034;28;20530;-67
2022/11/29 01:20:59;;;;;;;23.37;17.20;;;;;;;;;;5000057;28;20647;-67
2022/11/29 01:23:25;;;;;;;26.97;17.20;;;;;;;;;;5000036;28;20201;-67
2022/11/29 01:25:57;;;;;;;23.80;16.07;;;;;;;;;;4997853;28;20427;-67
2022/11/29 01:28:22;;;;;;;23.60;16.13;;;;;;;;;;4998460;28;20977;-67
2022/11/29 01:30:47;;;;;;;22.60;16.47;;;;;;;;;;4996091;28;20424;-67
2022/11/29 01:33:13;;;;;;;22.90;15.00;;;;;;;;;;4998958;28;20299;-66
2022/11/29 01:35:38;;;;;;;22.77;16.30;;;;;;;;;;4984836;28;20185;-67
2022/11/29 01:38:03;;;;;;;26.97;17.77;;;;;;;;;;4999021;28;20177;-67
2022/11/29 01:40:28;;;;;;;28.50;18.57;;;;;;;;;;4999233;28;20185;-67
2022/11/29 01:42:54;;;;;;;28.47;17.60;;;;;;;;;;5000901;28;20205;-66
2022/11/29 01:45:21;;;;;;;26.60;18.00;;;;;;;;;;4999901;28;20217;-67
2022/11/29 01:47:48;;;;;;;25.73;18.10;;;;;;;;;;4998869;28;20655;-67
2022/11/29 01:50:13;;;;;;;34.37;18.10;;;;;;;;;;5000618;28;20421;-67
2022/11/29 01:52:39;;;;;;;33.30;18.83;;;;;;;;;;4993112;28;20542;-66
2022/11/29 01:55:06;;;;;;;32.50;19.83;;;;;;;;;;4990289;28;20271;-67
2022/11/29 01:57:32;;;;;;;34.83;19.23;;;;;;;;;;4992497;28;20186;-67
2022/11/29 02:00:01;;;;;;;40.50;20.73;;;;;;;;;;4977245;28;20814;-67
2022/11/29 02:02:29;;;;;;;32.60;20.53;;;;;;;;;;4997740;28;20440;-67
2022/11/29 02:04:56;;;;;;;31.13;19.13;;;;;;;;;;4996616;28;20432;-66
2022/11/29 02:07:21;;;;;;;28.30;18.50;;;;;;;;;;4995270;28;20440;-67
2022/11/29 02:09:47;;;;;;;45.93;19.83;;;;;;;;;;4996119;28;20961;-66
2022/11/29 02:12:15;;;;;;;42.20;23.07;;;;;;;;;;4994366;28;20824;-67
2022/11/29 02:14:43;;;;;;;32.33;19.50;;;;;;;;;;4995085;28;20186;-67
2022/11/29 02:17:23;;;;;;;45.27;23.00;;;;;;;;;;4997794;28;20769;-67
2022/11/29 02:20:07;;;;;;;43.07;21.63;;;;;;;;;;4997069;28;20457;-67
2022/11/29 02:22:44;;;;;;;40.13;22.90;;;;;;;;;;4998851;28;20457;-67
2022/11/29 02:25:16;;;;;;;42.40;23.23;;;;;;;;;;4982856;28;20431;-67
2022/11/29 02:27:53;;;;;;;58.90;24.83;;;;;;;;;;4995962;28;20482;-67
2022/11/29 02:30:22;;;;;;;44.37;24.17;;;;;;;;;;4993362;28;20830;-67
2022/11/29 02:33:06;;;;;;;36.67;22.90;;;;;;;;;;4998691;28;20514;-67
2022/11/29 02:35:31;;;;;;;44.47;23.63;;;;;;;;;;5023099;23;20503;-68
2022/11/29 02:37:59;;;;;;;55.73;23.63;;;;;;;;;;5018090;28;21151;-68
2022/11/29 02:40:31;;;;;;;51.77;23.30;;;;;;;;;;4994858;28;20205;-68
2022/11/29 02:43:02;;;;;;;42.40;23.97;;;;;;;;;;5003737;28;20535;-68
2022/11/29 02:45:46;;;;;;;51.73;23.20;;;;;;;;;;5013806;28;20446;-68
2022/11/29 02:48:36;;;;;;;45.03;22.37;;;;;;;;;;4999192;28;20921;-68
2022/11/29 02:51:21;;;;;;;49.77;23.73;;;;;;;;;;5013897;28;20442;-67
2022/11/29 02:53:50;;;;;;;44.10;23.43;;;;;;;;;;5002483;28;20440;-68
2022/11/29 02:56:22;;;;;;;43.73;23.20;;;;;;;;;;5013489;28;21001;-68
2022/11/29 02:58:56;;;;;;;55.83;23.30;;;;;;;;;;5012020;28;20451;-68
2022/11/29 03:01:28;;;;;;;45.43;21.70;;;;;;;;;;5014376;28;20445;-68
2022/11/29 03:03:57;;;;;;;39.07;22.00;;;;;;;;;;5011979;28;20441;-68
2022/11/29 03:06:45;;;;;;;39.20;21.63;;;;;;;;;;5003719;28;20855;-69
2022/11/29 03:09:40;;;;;;;48.57;24.33;;;;;;;;;;5001733;28;20467;-68
2022/11/29 03:12:05;;;;;;;47.60;22.90;;;;;;;;;;4992805;28;20970;-68
2022/11/29 03:14:53;;;;;;;44.73;21.70;;;;;;;;;;5013492;28;20442;-68
2022/11/29 03:17:23;;;;;;;40.73;22.20;;;;;;;;;;4990135;28;20199;-68
2022/11/29 03:20:08;;;;;;;43.00;22.83;;;;;;;;;;5019878;28;20450;-68
2022/11/29 03:22:42;;;;;;;48.93;21.77;;;;;;;;;;5016461;28;20421;-68
2022/11/29 03:25:11;;;;;;;44.50;22.23;;;;;;;;;;5019626;28;20454;-68
2022/11/29 03:27:42;;;;;;;45.13;22.47;;;;;;;;;;5018138;28;20420;-68
2022/11/29 03:30:09;;;;;;;40.00;22.90;;;;;;;;;;5018289;28;20443;-68
2022/11/29 03:32:49;;;;;;;44.67;22.77;;;;;;;;;;5019810;28;20550;-68
2022/11/29 03:35:15;;;;;;;43.60;21.17;;;;;;;;;;5017999;28;20473;-68
2022/11/29 03:38:07;;;;;;;42.67;21.40;;;;;;;;;;5017480;28;20408;-68
2022/11/29 03:40:43;;;;;;;40.40;20.17;;;;;;;;;;5018566;28;20207;-68
2022/11/29 03:43:12;;;;;;;42.57;21.97;;;;;;;;;;5019312;28;20437;-68
2022/11/29 03:45:37;;;;;;;41.10;21.40;;;;;;;;;;5020568;28;20417;-68
2022/11/29 03:48:29;;;;;;;41.33;21.73;;;;;;;;;;5013955;28;20939;-68
2022/11/29 03:51:20;;;;;;;50.33;21.43;;;;;;;;;;4982955;28;20196;-67
2022/11/29 03:54:02;;;;;;;43.23;23.10;;;;;;;;;;4984647;28;20887;-68
2022/11/29 03:56:29;;;;;;;47.30;22.43;;;;;;;;;;5013180;28;20436;-68
2022/11/29 03:59:07;;;;;;;37.87;20.50;;;;;;;;;;5010093;28;20488;-68
2022/11/29 04:01:38;;;;;;;43.80;21.30;;;;;;;;;;5011758;28;21606;-68
2022/11/29 04:04:12;;;;;;;43.80;21.63;;;;;;;;;;5010625;28;20444;-68
2022/11/29 04:06:56;;;;;;;37.40;20.43;;;;;;;;;;5012612;28;20821;-68
2022/11/29 04:09:21;;;;;;;33.50;18.20;;;;;;;;;;4997968;28;20463;-68
2022/11/29 04:11:57;;;;;;;41.73;20.80;;;;;;;;;;5014148;28;20996;-68
2022/11/29 04:14:22;;;;;;;36.83;19.60;;;;;;;;;;5013354;28;20195;-67
2022/11/29 04:17:07;;;;;;;38.50;19.90;;;;;;;;;;5012571;28;20655;-69
2022/11/29 04:19:51;;;;;;;43.73;20.40;;;;;;;;;;4996656;28;20208;-69
2022/11/29 04:22:16;;;;;;;40.03;20.20;;;;;;;;;;5012946;28;20427;-69
2022/11/29 04:25:00;;;;;;;34.27;19.33;;;;;;;;;;5014246;28;21079;-68
2022/11/29 04:27:34;;;;;;;49.93;19.57;;;;;;;;;;5014406;28;20185;-68
2022/11/29 04:30:02;;;;;;;35.07;18.17;;;;;;;;;;5014061;28;20454;-68
2022/11/29 04:32:28;;;;;;;48.47;19.23;;;;;;;;;;5009742;28;20502;-68
2022/11/29 04:34:56;;;;;;;42.67;20.77;;;;;;;;;;5011285;28;20929;-68
2022/11/29 04:37:30;;;;;;;30.17;17.57;;;;;;;;;;5016064;28;20176;-69
2022/11/29 04:40:02;;;;;;;31.97;17.40;;;;;;;;;;5018290;28;20426;-70
2022/11/29 04:42:36;;;;;;;44.50;19.20;;;;;;;;;;4997401;28;20444;-70
2022/11/29 04:45:04;;;;;;;34.10;18.47;;;;;;;;;;5016219;28;20446;-69
2022/11/29 04:47:49;;;;;;;51.40;18.20;;;;;;;;;;4998744;28;20427;-69
2022/11/29 04:50:22;;;;;;;38.87;19.17;;;;;;;;;;5016407;28;20499;-69
2022/11/29 04:52:47;;;;;;;33.40;18.23;;;;;;;;;;5018170;28;20542;-70
2022/11/29 04:55:31;;;;;;;33.50;19.53;;;;;;;;;;5000992;28;20553;-69
2022/11/29 04:58:05;;;;;;;40.40;17.70;;;;;;;;;;5016895;28;20185;-69
2022/11/29 05:00:34;;;;;;;29.10;17.10;;;;;;;;;;5018171;28;20546;-69
2022/11/29 05:03:03;;;;;;;33.73;19.27;;;;;;;;;;5016544;28;20446;-69
2022/11/29 05:05:48;;;;;;;33.67;18.57;;;;;;;;;;5019180;28;20510;-69
2022/11/29 05:08:29;;;;;;;41.43;19.53;;;;;;;;;;4981616;28;20474;-70
2022/11/29 05:11:15;;;;;;;36.70;17.47;;;;;;;;;;5015350;28;21295;-69
2022/11/29 05:13:46;;;;;;;41.20;20.47;;;;;;;;;;5009453;28;20470;-69
2022/11/29 05:16:21;;;;;;;37.60;20.00;;;;;;;;;;4998818;28;20452;-69
2022/11/29 05:18:57;;;;;;;41.47;19.70;;;;;;;;;;5010300;28;20451;-69
2022/11/29 05:21:34;;;;;;;38.33;20.63;;;;;;;;;;5011836;28;20443;-69
2022/11/29 05:24:02;;;;;;;34.83;20.27;;;;;;;;;;5014292;28;20450;-70
2022/11/29 05:26:34;;;;;;;41.10;20.30;;;;;;;;;;5011094;28;20451;-69
2022/11/29 05:29:02;;;;;;;33.90;20.23;;;;;;;;;;5008989;28;20491;-69
2022/11/29 05:31:46;;;;;;;36.83;18.90;;;;;;;;;;5013062;28;20463;-69
2022/11/29 05:34:30;;;;;;;35.30;18.30;;;;;;;;;;5011339;28;20446;-69
2022/11/29 05:37:08;;;;;;;38.83;21.10;;;;;;;;;;5006825;28;20482;-69
2022/11/29 05:39:56;;;;;;;40.83;18.90;;;;;;;;;;5011595;28;20455;-69
2022/11/29 05:42:40;;;;;;;34.03;18.40;;;;;;;;;;5001452;28;20443;-69
2022/11/29 05:45:11;;;;;;;36.70;18.20;;;;;;;;;;5014218;28;20444;-69
2022/11/29 05:47:45;;;;;;;44.97;20.47;;;;;;;;;;5014121;28;20470;-69
2022/11/29 05:50:17;;;;;;;50.57;20.37;;;;;;;;;;5014336;28;20797;-69
2022/11/29 05:52:54;;;;;;;48.63;20.40;;;;;;;;;;5012797;28;20892;-68
2022/11/29 05:55:29;;;;;;;43.90;20.37;;;;;;;;;;5014399;28;20462;-69
2022/11/29 05:57:54;;;;;;;33.00;19.53;;;;;;;;;;5013310;28;20535;-69
2022/11/29 06:00:19;;;;;;;36.73;19.97;;;;;;;;;;5014270;28;20521;-68
2022/11/29 06:03:02;;;;;;;29.53;17.97;;;;;;;;;;5015128;28;20188;-69
2022/11/29 06:05:40;;;;;;;34.03;18.00;;;;;;;;;;5012329;28;20279;-69
2022/11/29 06:08:30;;;;;;;37.17;19.80;;;;;;;;;;5011106;28;20486;-69
2022/11/29 06:11:11;;;;;;;37.70;20.60;;;;;;;;;;5007294;28;20447;-69
2022/11/29 06:13:53;;;;;;;35.33;19.43;;;;;;;;;;4997853;28;20462;-69
2022/11/29 06:16:49;;;;;;;35.70;20.03;;;;;;;;;;5014236;28;20917;-69
2022/11/29 06:19:18;;;;;;;32.20;18.07;;;;;;;;;;4977697;28;20463;-69
2022/11/29 06:21:59;;;;;;;35.20;18.53;;;;;;;;;;4999895;28;20447;-69
2022/11/29 06:24:27;;;;;;;35.10;19.43;;;;;;;;;;4989528;28;20560;-70
2022/11/29 06:26:56;;;;;;;31.07;18.37;;;;;;;;;;5013386;28;20439;-69
2022/11/29 06:29:22;;;;;;;35.13;18.83;;;;;;;;;;5010193;28;20455;-72
2022/11/29 06:32:15;;;;;;;30.10;17.20;;;;;;;;;;5010346;28;20912;-69
2022/11/29 06:34:45;;;;;;;31.80;18.27;;;;;;;;;;4989128;28;20244;-69
2022/11/29 06:37:37;;;;;;;31.00;18.10;;;;;;;;;;4989969;28;20530;-69
2022/11/29 06:40:02;;;;;;;33.40;18.47;;;;;;;;;;5010907;28;20467;-69
2022/11/29 06:42:28;;;;;;;29.00;17.13;;;;;;;;;;5015240;28;20426;-69
2022/11/29 06:44:53;;;;;;;35.43;19.03;;;;;;;;;;5012455;28;20917;-69
2022/11/29 06:47:25;;;;;;;30.77;17.87;;;;;;;;;;4995341;28;20189;-69
2022/11/29 06:50:10;;;;;;;33.27;18.20;;;;;;;;;;5006271;28;20224;-69
2022/11/29 06:52:47;;;;;;;32.93;18.80;;;;;;;;;;5015512;28;20605;-69
2022/11/29 06:55:23;;;;;;;26.27;16.40;;;;;;;;;;5004841;28;20443;-69
2022/11/29 06:57:54;;;;;;;27.73;16.13;;;;;;;;;;5016587;28;20435;-69
2022/11/29 07:00:21;;;;;;;29.87;16.87;;;;;;;;;;5008488;28;20467;-69
2022/11/29 07:02:47;;;;;;;28.80;16.73;;;;;;;;;;5015304;28;20432;-69
2022/11/29 07:05:15;;;;;;;29.77;17.30;;;;;;;;;;4996562;28;21139;-69
2022/11/29 07:07:41;;;;;;;29.30;16.73;;;;;;;;;;5006089;28;20203;-70
2022/11/29 07:10:12;;;;;;;28.20;16.37;;;;;;;;;;5017597;28;21258;-68
2022/11/29 07:12:37;;;;;;;31.73;16.93;;;;;;;;;;5017712;28;20205;-69
2022/11/29 07:15:03;;;;;;;28.87;16.33;;;;;;;;;;5002566;28;20432;-69
2022/11/29 07:17:31;;;;;;;28.83;16.37;;;;;;;;;;4994730;28;20268;-69
2022/11/29 07:20:09;;;;;;;31.47;17.33;;;;;;;;;;5015116;28;20192;-69
2022/11/29 07:22:46;;;;;;;30.07;18.20;;;;;;;;;;5016083;28;20436;-69
2022/11/29 07:25:20;;;;;;;30.93;17.23;;;;;;;;;;4991993;28;20842;-69
2022/11/29 07:27:54;;;;;;;31.73;18.73;;;;;;;;;;4998549;28;20442;-69
2022/11/29 07:30:40;;;;;;;31.60;17.83;;;;;;;;;;5002245;28;20482;-69
2022/11/29 07:33:19;;;;;;;28.83;17.43;;;;;;;;;;5016589;28;21004;-69
2022/11/29 07:35:56;;;;;;;31.57;18.00;;;;;;;;;;5018493;28;20537;-69
2022/11/29 07:38:34;;;;;;;26.80;17.10;;;;;;;;;;5003312;28;20466;-69
2022/11/29 07:41:10;;;;;;;31.60;18.67;;;;;;;;;;5016266;28;20443;-69
2022/11/29 07:44:00;;;;;;;26.97;17.70;;;;;;;;;;5018885;28;20418;-69
2022/11/29 07:46:27;;;;;;;30.87;18.60;;;;;;;;;;5019235;28;20461;-69
2022/11/29 07:48:52;;;;;;;38.10;20.10;;;;;;;;;;4996387;28;21038;-69
2022/11/29 07:51:17;;;;;;;29.83;18.60;;;;;;;;;;4996060;28;20446;-69
2022/11/29 07:53:43;;;;;;;29.93;19.53;;;;;;;;;;5012429;28;20193;-68
2022/11/29 07:56:09;;;;;;;24.60;17.10;;;;;;;;;;5014548;28;20193;-70
2022/11/29 07:58:35;;;;;;;30.20;18.40;;;;;;;;;;5013841;28;20204;-69
2022/11/29 08:01:00;;;;;;;29.97;18.20;;;;;;;;;;5011911;28;20181;-69
2022/11/29 08:03:25;;;;;;;29.43;18.93;;;;;;;;;;5011760;28;20185;-69
2022/11/29 08:05:51;;;;;;;32.30;18.20;;;;;;;;;;5012260;28;20180;-69
2022/11/29 08:08:16;;;;;;;26.07;17.63;;;;;;;;;;5011252;28;20183;-69
2022/11/29 08:10:41;;;;;;;26.80;17.57;;;;;;;;;;4999076;28;20251;-69
2022/11/29 08:13:06;;;;;;;27.40;17.40;;;;;;;;;;5009585;28;20212;-69
2022/11/29 08:15:32;;;;;;;23.40;17.20;;;;;;;;;;5008584;28;20184;-68
2022/11/29 08:17:58;;;;;;;30.20;17.63;;;;;;;;;;5013380;28;20208;-70
2022/11/29 08:20:24;;;;;;;23.17;16.63;;;;;;;;;;5015015;28;20839;-69
2022/11/29 08:22:53;;;;;;;25.43;18.17;;;;;;;;;;4998625;28;20213;-69
2022/11/29 08:25:18;;;;;;;24.17;16.13;;;;;;;;;;5013451;28;20582;-68
2022/11/29 08:27:43;;;;;;;28.37;17.87;;;;;;;;;;5011256;28;20438;-68
2022/11/29 08:30:09;;;;;;;26.13;17.40;;;;;;;;;;4992981;28;20204;-68
2022/11/29 08:32:34;;;;;;;26.87;17.90;;;;;;;;;;4998630;28;20583;-69
2022/11/29 08:34:59;;;;;;;26.57;15.43;;;;;;;;;;5014284;28;20246;-68
2022/11/29 08:37:25;;;;;;;23.87;15.70;;;;;;;;;;5005854;28;20181;-68
2022/11/29 08:39:54;;;;;;;28.13;16.53;;;;;;;;;;5005778;28;20212;-68
2022/11/29 08:42:19;;;;;;;22.30;14.70;;;;;;;;;;5009456;28;20189;-69
2022/11/29 08:44:45;;;;;;;24.90;14.30;;;;;;;;;;5011222;28;20478;-69
2022/11/29 08:50:00;;;;;;;28.40;15.07;;;;;;;;;;5013597;28;20545;-69
2022/11/29 08:55:13;;;;;;;23.63;14.00;;;;;;;;;;5015292;28;20531;-68
2022/11/29 08:57:38;;;;;;;24.10;12.87;;;;;;;;;;5011904;28;20940;-69
2022/11/29 09:00:04;;;;;;;19.20;12.63;;;;;;;;;;4998666;28;20735;-69
2022/11/29 09:02:29;;;;;;;21.63;13.50;;;;;;;;;;5009598;28;20180;-69
2022/11/29 09:04:55;;;;;;;22.50;14.43;;;;;;;;;;5013726;28;20443;-69
2022/11/29 09:07:20;;;;;;;19.30;11.33;;;;;;;;;;5012550;28;20682;-69
2022/11/29 09:09:45;;;;;;;21.20;11.47;;;;;;;;;;4995429;28;20267;-70
2022/11/29 09:12:10;;;;;;;23.50;12.37;;;;;;;;;;5011401;28;20300;-69
2022/11/29 09:14:36;;;;;;;17.00;10.17;;;;;;;;;;5012150;28;20701;-69
2022/11/29 09:17:01;;;;;;;14.67;11.23;;;;;;;;;;5013998;28;20267;-69
2022/11/29 09:19:27;;;;;;;14.80;9.97;;;;;;;;;;4999027;28;20257;-70
2022/11/29 09:21:52;;;;;;;20.77;10.67;;;;;;;;;;5011683;28;20185;-70
2022/11/29 09:24:19;;;;;;;20.27;10.20;;;;;;;;;;5007221;28;20205;-69
2022/11/29 09:26:47;;;;;;;16.47;10.00;;;;;;;;;;5012152;28;20181;-69
2022/11/29 09:29:12;;;;;;;19.40;9.70;;;;;;;;;;5011774;28;20454;-69
2022/11/29 09:31:40;;;;;;;19.20;8.90;;;;;;;;;;5013492;28;21181;-69
2022/11/29 09:34:05;;;;;;;17.57;9.70;;;;;;;;;;5013046;28;20179;-69
2022/11/29 09:36:31;;;;;;;18.00;10.67;;;;;;;;;;5014500;28;20439;-69
2022/11/29 09:38:57;;;;;;;14.57;9.27;;;;;;;;;;4993065;28;20211;-69
2022/11/29 09:41:41;;;;;;;21.10;9.47;;;;;;;;;;5008338;28;20702;-69
2022/11/29 09:44:18;;;;;;;18.10;8.60;;;;;;;;;;5012546;28;20226;-69
2022/11/29 09:47:03;;;;;;;15.23;9.73;;;;;;;;;;5012303;28;20948;-70
2022/11/29 09:49:29;;;;;;;17.57;9.60;;;;;;;;;;4975730;28;20465;-69
2022/11/29 09:51:57;;;;;;;18.57;8.80;;;;;;;;;;5011116;28;20475;-70
2022/11/29 09:54:22;;;;;;;15.63;9.60;;;;;;;;;;4997266;28;20187;-70
2022/11/29 09:56:49;;;;;;;17.30;9.87;;;;;;;;;;4999193;28;20423;-70
2022/11/29 09:59:27;;;;;;;12.87;8.20;;;;;;;;;;5007456;28;20293;-69
2022/11/29 10:01:58;;;;;;;21.13;9.70;;;;;;;;;;5004338;28;20505;-70
2022/11/29 10:04:36;;;;;;;22.13;9.97;;;;;;;;;;5015479;28;20857;-70
2022/11/29 10:07:03;;;;;;;15.93;9.30;;;;;;;;;;4999930;28;20794;-70
2022/11/29 10:09:36;;;;;;;17.70;9.20;;;;;;;;;;5012519;28;20458;-70
2022/11/29 10:12:36;;;;;;;16.50;8.80;;;;;;;;;;5015279;28;20484;-69
2022/11/29 10:15:09;;;;;;;14.80;8.30;;;;;;;;;;4893210;29;20428;-69
2022/11/29 10:17:39;;;;;;;14.33;8.63;;;;;;;;;;4998098;28;20420;-70
2022/11/29 10:20:14;;;;;;;15.43;9.97;;;;;;;;;;5015493;28;20436;-70
2022/11/29 10:22:48;;;;;;;17.03;10.00;;;;;;;;;;5018136;28;20415;-69
2022/11/29 10:25:19;;;;;;;21.67;11.60;;;;;;;;;;5016645;28;20446;-70
2022/11/29 10:27:44;;;;;;;21.33;12.10;;;;;;;;;;5006088;28;20411;-70
2022/11/29 10:30:14;;;;;;;19.20;12.90;;;;;;;;;;5019097;28;20470;-70
2022/11/29 10:32:39;;;;;;;19.53;13.03;;;;;;;;;;5016980;28;20648;-70
2022/11/29 10:35:11;;;;;;;31.67;14.87;;;;;;;;;;5003893;28;20580;-70
2022/11/29 10:37:37;;;;;;;26.53;15.33;;;;;;;;;;4999904;28;20949;-70
2022/11/29 10:40:06;;;;;;;26.03;14.70;;;;;;;;;;4999783;28;20435;-70
2022/11/29 10:45:33;;;;;;;29.27;15.67;;;;;;;;;;5018408;28;20405;-70
2022/11/29 10:48:03;;;;;;;23.63;14.43;;;;;;;;;;5016987;28;21162;-70
2022/11/29 10:50:30;;;;;;;27.80;16.63;;;;;;;;;;5018090;28;20522;-69
2022/11/29 10:53:15;;;;;;;36.00;18.70;;;;;;;;;;5016693;28;20475;-70
2022/11/29 10:56:01;;;;;;;27.80;16.73;;;;;;;;;;5018134;28;20412;-70
2022/11/29 10:58:27;;;;;;;33.57;17.77;;;;;;;;;;5016933;28;20424;-70
2022/11/29 11:00:54;;;;;;;30.53;16.93;;;;;;;;;;4999832;28;20424;-70
2022/11/29 11:03:28;;;;;;;34.80;16.43;;;;;;;;;;5018065;28;20411;-69
2022/11/29 11:05:58;;;;;;;37.00;18.10;;;;;;;;;;5015952;28;20428;-70
2022/11/29 11:08:23;;;;;;;36.80;18.40;;;;;;;;;;5014290;28;20432;-70
2022/11/29 11:10:54;;;;;;;42.87;21.13;;;;;;;;;;5017102;28;20791;-70
2022/11/29 11:13:27;;;;;;;38.10;18.27;;;;;;;;;;5016959;28;20216;-70
2022/11/29 11:15:56;;;;;;;51.40;21.87;;;;;;;;;;5000451;28;20666;-70
2022/11/29 11:18:24;;;;;;;47.83;19.93;;;;;;;;;;5016736;28;20504;-70
2022/11/29 11:20:53;;;;;;;44.80;19.80;;;;;;;;;;5020955;28;20443;-70
2022/11/29 11:23:28;;;;;;;38.00;20.37;;;;;;;;;;5020956;28;20430;-69
2022/11/29 11:25:59;;;;;;;43.90;20.83;;;;;;;;;;5011276;28;20419;-70
2022/11/29 11:28:26;;;;;;;40.10;21.17;;;;;;;;;;5002190;28;20427;-69
2022/11/29 11:30:56;;;;;;;40.63;19.87;;;;;;;;;;5021740;28;20420;-69
2022/11/29 11:33:21;;;;;;;45.13;21.37;;;;;;;;;;5022401;28;20480;-69
2022/11/29 11:36:00;;;;;;;33.90;18.83;;;;;;;;;;5016436;28;20447;-69
2022/11/29 11:38:26;;;;;;;34.13;18.53;;;;;;;;;;5005787;28;20180;-69
2022/11/29 11:41:20;;;;;;;39.70;18.40;;;;;;;;;;5005290;28;20422;-70
2022/11/29 11:43:54;;;;;;;42.63;18.67;;;;;;;;;;4985411;28;20196;-69
2022/11/29 11:46:20;;;;;;;36.83;18.07;;;;;;;;;;5017793;28;20439;-69
2022/11/29 11:48:45;;;;;;;42.90;18.53;;;;;;;;;;5004387;28;20499;-69
2022/11/29 11:51:22;;;;;;;34.20;17.37;;;;;;;;;;5003713;28;20215;-69
2022/11/29 11:53:49;;;;;;;38.63;17.10;;;;;;;;;;5000878;28;20212;-69
2022/11/29 11:56:14;;;;;;;39.27;15.30;;;;;;;;;;5020298;28;20408;-69
2022/11/29 11:58:42;;;;;;;34.10;16.03;;;;;;;;;;5021536;28;20942;-69
2022/11/29 12:01:11;;;;;;;30.40;15.07;;;;;;;;;;5020548;28;20403;-69
2022/11/29 12:03:36;;;;;;;31.27;14.80;;;;;;;;;;5000043;28;20753;-69
2022/11/29 12:06:19;;;;;;;29.50;14.20;;;;;;;;;;5019326;28;20450;-70
2022/11/29 12:08:46;;;;;;;26.80;13.17;;;;;;;;;;5018903;28;20201;-70
2022/11/29 12:11:13;;;;;;;26.30;13.23;;;;;;;;;;5021456;28;20423;-70
2022/11/29 12:13:40;;;;;;;25.63;13.60;;;;;;;;;;5008953;28;20462;-70
2022/11/29 12:16:10;;;;;;;25.70;14.37;;;;;;;;;;5018730;28;20453;-69
2022/11/29 12:18:39;;;;;;;25.23;12.73;;;;;;;;;;5001051;28;20455;-70
2022/11/29 12:21:04;;;;;;;28.37;13.20;;;;;;;;;;5007147;28;20420;-70
2022/11/29 12:23:34;;;;;;;22.50;14.23;;;;;;;;;;5014068;28;20779;-70
2022/11/29 12:26:04;;;;;;;22.53;13.47;;;;;;;;;;5018409;28;20181;-70
2022/11/29 12:28:37;;;;;;;21.77;14.27;;;;;;;;;;5019669;28;20412;-70
2022/11/29 12:31:06;;;;;;;23.07;15.37;;;;;;;;;;5019093;28;20416;-70
2022/11/29 12:33:37;;;;;;;22.90;15.70;;;;;;;;;;5019383;28;20479;-70
2022/11/29 12:36:21;;;;;;;23.33;15.27;;;;;;;;;;5020255;28;20428;-70
2022/11/29 12:38:49;;;;;;;21.47;14.60;;;;;;;;;;5018418;28;20431;-70
2022/11/29 12:41:20;;;;;;;33.40;18.63;;;;;;;;;;5020600;28;20495;-70
2022/11/29 12:43:54;;;;;;;31.20;18.60;;;;;;;;;;5019537;28;20407;-70
2022/11/29 12:46:26;;;;;;;29.30;19.97;;;;;;;;;;5017296;28;20791;-69
2022/11/29 12:48:59;;;;;;;31.90;18.40;;;;;;;;;;5018702;28;20463;-70
2022/11/29 12:51:24;;;;;;;32.00;19.03;;;;;;;;;;5016259;28;20467;-69
2022/11/29 12:54:08;;;;;;;30.23;19.87;;;;;;;;;;5001487;28;20408;-69
2022/11/29 12:56:43;;;;;;;29.23;18.90;;;;;;;;;;5001614;28;20181;-70
2022/11/29 12:59:19;;;;;;;33.23;20.20;;;;;;;;;;5018033;28;20999;-70
2022/11/29 13:01:50;;;;;;;26.73;18.67;;;;;;;;;;5002403;28;20475;-69
2022/11/29 13:04:38;;;;;;;24.50;17.17;;;;;;;;;;5016624;28;20430;-69
2022/11/29 13:07:12;;;;;;;24.43;16.80;;;;;;;;;;5017681;28;20420;-69
2022/11/29 13:09:40;;;;;;;21.00;15.60;;;;;;;;;;5002758;28;20470;-70
2022/11/29 13:12:08;;;;;;;22.90;16.37;;;;;;;;;;5017155;28;20462;-70
2022/11/29 13:14:40;;;;;;;22.57;14.80;;;;;;;;;;5002643;28;21005;-69
2022/11/29 13:17:13;;;;;;;20.30;14.67;;;;;;;;;;4997561;28;20446;-69
2022/11/29 13:19:45;;;;;;;19.03;13.93;;;;;;;;;;5017927;28;20424;-70
2022/11/29 13:22:10;;;;;;;22.77;15.10;;;;;;;;;;5002229;28;20418;-69
2022/11/29 13:24:41;;;;;;;22.50;15.30;;;;;;;;;;5019624;28;20418;-69
2022/11/29 13:27:09;;;;;;;23.57;14.83;;;;;;;;;;5002212;28;20191;-69
2022/11/29 13:29:34;;;;;;;24.40;15.90;;;;;;;;;;5016979;28;20485;-70
2022/11/29 13:32:01;;;;;;;23.00;15.50;;;;;;;;;;5003221;28;20456;-70
2022/11/29 13:34:46;;;;;;;20.70;14.00;;;;;;;;;;5018649;28;20187;-70
2022/11/29 13:37:22;;;;;;;21.13;14.37;;;;;;;;;;5018540;28;20403;-69
2022/11/29 13:39:51;;;;;;;25.80;15.80;;;;;;;;;;5004099;28;20540;-69
2022/11/29 13:42:31;;;;;;;24.53;14.77;;;;;;;;;;4999920;28;20487;-70
2022/11/29 13:45:15;;;;;;;18.93;12.87;;;;;;;;;;5017109;28;20415;-70
2022/11/29 13:47:50;;;;;;;21.07;15.10;;;;;;;;;;5016536;28;20411;-70
2022/11/29 13:50:36;;;;;;;21.37;14.73;;;;;;;;;;5014872;28;20435;-70
2022/11/29 13:53:03;;;;;;;19.47;13.50;;;;;;;;;;5000968;28;20895;-69
2022/11/29 13:55:30;;;;;;;18.30;12.93;;;;;;;;;;5013292;28;20419;-69
2022/11/29 13:58:06;;;;;;;17.87;12.43;;;;;;;;;;5019450;28;20407;-69
2022/11/29 14:00:33;;;;;;;17.13;11.70;;;;;;;;;;5018809;28;20517;-69
2022/11/29 14:03:17;;;;;;;18.90;11.10;;;;;;;;;;5017693;28;20412;-69
2022/11/29 14:05:43;;;;;;;15.77;11.43;;;;;;;;;;5001456;28;20432;-69
2022/11/29 14:08:31;;;;;;;18.10;11.23;;;;;;;;;;5017241;28;20420;-70
2022/11/29 14:11:02;;;;;;;16.83;10.70;;;;;;;;;;5002555;28;20419;-69
2022/11/29 14:13:34;;;;;;;15.10;10.87;;;;;;;;;;5021959;28;20841;-70
2022/11/29 14:16:02;;;;;;;15.40;10.73;;;;;;;;;;5019728;28;20480;-70
2022/11/29 14:18:36;;;;;;;17.53;11.23;;;;;;;;;;5021700;28;20493;-70
2022/11/29 14:21:02;;;;;;;13.73;9.90;;;;;;;;;;5020107;28;20469;-70
2022/11/29 14:23:32;;;;;;;15.03;9.60;;;;;;;;;;5021937;28;20905;-70
2022/11/29 14:25:57;;;;;;;13.10;8.70;;;;;;;;;;5001235;28;20426;-70
2022/11/29 14:28:22;;;;;;;15.47;9.87;;;;;;;;;;5020511;28;20430;-70
2022/11/29 14:30:52;;;;;;;11.90;8.23;;;;;;;;;;5020040;28;20177;-70
2022/11/29 14:33:22;;;;;;;9.60;8.10;;;;;;;;;;5018382;28;20197;-70
2022/11/29 14:35:48;;;;;;;12.17;8.27;;;;;;;;;;5019944;28;20443;-70
2022/11/29 14:38:20;;;;;;;9.53;7.60;;;;;;;;;;5003316;28;20790;-70
2022/11/29 14:40:51;;;;;;;13.27;9.30;;;;;;;;;;5002639;28;20418;-70
2022/11/29 14:43:22;;;;;;;11.20;8.20;;;;;;;;;;5004019;28;20527;-70
2022/11/29 14:46:05;;;;;;;11.10;7.70;;;;;;;;;;5020564;28;20490;-70
2022/11/29 14:48:31;;;;;;;7.37;5.93;;;;;;;;;;5018858;28;20399;-70
2022/11/29 14:51:11;;;;;;;11.50;7.03;;;;;;;;;;5019979;28;20430;-70